createdAt,value
2023-11-04T00:04:11.413Z,11.25
2023-11-04T00:09:19.465Z,12.73
2023-11-04T00:14:22.293Z,9.38
2023-11-04T00:19:24.680Z,10.23
2023-11-04T00:24:26.962Z,12.63
2023-11-04T00:29:30.269Z,12.00
2023-11-04T00:34:32.497Z,11.43
2023-11-04T00:39:34.833Z,11.73
2023-11-04T00:44:36.998Z,15.17
2023-11-04T00:49:40.158Z,15.07
2023-11-04T00:54:42.613Z,15.70
2023-11-04T00:59:44.818Z,12.35
2023-11-04T01:04:47.014Z,12.98
2023-11-04T01:09:49.266Z,14.03
2023-11-04T01:14:51.453Z,14.30
2023-11-04T01:19:53.685Z,12.55
2023-11-04T01:24:55.799Z,11.98
2023-11-04T01:29:58.044Z,11.32
2023-11-04T01:35:00.634Z,11.00
2023-11-04T01:40:08.226Z,11.70
2023-11-04T01:45:10.685Z,10.18
2023-11-04T01:50:13.173Z,10.82
2023-11-04T01:55:15.874Z,12.27
2023-11-04T02:00:18.816Z,10.47
2023-11-04T02:05:21.521Z,10.32
2023-11-04T02:10:23.757Z,10.10
2023-11-04T02:15:26.900Z,11.02
2023-11-04T02:20:29.888Z,8.48
2023-11-04T02:25:35.791Z,9.60
2023-11-04T02:30:37.999Z,9.18
2023-11-04T02:35:40.216Z,7.72
2023-11-04T02:40:45.815Z,8.85
2023-11-04T02:45:48.092Z,6.55
2023-11-04T02:50:50.502Z,7.30
2023-11-04T02:55:52.748Z,7.93
2023-11-04T03:00:55.003Z,7.95
2023-11-04T03:05:57.432Z,7.30
2023-11-04T03:10:59.642Z,7.60
2023-11-04T03:16:01.919Z,6.80
2023-11-04T03:21:13.158Z,7.25
2023-11-04T03:26:15.479Z,7.60
2023-11-04T03:31:17.835Z,7.43
2023-11-04T03:36:19.977Z,6.00
2023-11-04T03:41:22.334Z,5.97
2023-11-04T03:46:24.471Z,7.18
2023-11-04T03:51:27.497Z,6.62
2023-11-04T03:56:29.712Z,6.85
2023-11-04T04:01:42.008Z,8.10
2023-11-04T04:06:44.273Z,6.23
2023-11-04T04:11:46.498Z,7.10
2023-11-04T04:16:48.703Z,6.05
2023-11-04T04:21:50.881Z,6.25
2023-11-04T04:26:53.256Z,6.97
2023-11-04T04:31:55.841Z,8.63
2023-11-04T04:36:59.773Z,8.50
2023-11-04T04:42:02.251Z,8.35
2023-11-04T04:47:04.707Z,7.30
2023-11-04T04:52:06.936Z,7.28
2023-11-04T04:57:09.123Z,6.30
2023-11-04T05:02:11.328Z,6.43
2023-11-04T05:07:13.784Z,6.22
2023-11-04T05:12:16.241Z,5.45
2023-11-04T05:17:18.903Z,7.12
2023-11-04T05:22:21.051Z,6.87
2023-11-04T05:27:24.434Z,6.93
2023-11-04T05:32:26.737Z,6.37
2023-11-04T05:37:29.034Z,6.80
2023-11-04T05:42:31.236Z,6.90
2023-11-04T05:47:34.705Z,8.00
2023-11-04T05:52:36.969Z,7.32
2023-11-04T05:57:39.778Z,6.80
2023-11-04T06:02:42.725Z,6.53
2023-11-04T06:07:44.891Z,6.82
2023-11-04T06:12:47.028Z,7.83
2023-11-04T06:17:49.392Z,7.78
2023-11-04T06:22:51.661Z,6.87
2023-11-04T06:27:53.972Z,6.45
2023-11-04T06:32:56.098Z,5.93
2023-11-04T06:37:58.385Z,7.23
2023-11-04T06:43:00.660Z,7.30
2023-11-04T06:48:03.009Z,7.30
2023-11-04T06:53:05.277Z,7.05
2023-11-04T06:58:07.445Z,8.13
2023-11-04T07:03:09.684Z,9.43
2023-11-04T07:08:17.966Z,8.00
2023-11-04T07:13:20.211Z,8.43
2023-11-04T07:18:22.414Z,7.97
2023-11-04T07:23:24.545Z,7.30
2023-11-04T07:28:35.671Z,7.80
2023-11-04T07:33:39.198Z,9.25
2023-11-04T07:38:41.650Z,7.75
2023-11-04T07:43:44.029Z,7.55
2023-11-04T07:48:46.316Z,7.97
2023-11-04T07:53:48.493Z,11.43
2023-11-04T07:58:50.590Z,10.38
2023-11-04T08:03:52.907Z,9.85
2023-11-04T08:08:55.189Z,7.28
2023-11-04T08:13:57.353Z,8.25
2023-11-04T08:18:59.587Z,7.57
2023-11-04T08:24:01.909Z,8.20
2023-11-04T08:29:09.792Z,7.05
2023-11-04T08:34:12.175Z,6.78
2023-11-04T08:39:15.523Z,8.23
2023-11-04T08:44:17.686Z,6.50
2023-11-04T08:49:19.977Z,6.75
2023-11-04T08:54:23.176Z,7.28
2023-11-04T08:59:25.393Z,7.78
2023-11-04T09:04:28.886Z,8.10
2023-11-04T09:09:31.492Z,11.07
2023-11-04T09:14:34.131Z,6.53
2023-11-04T09:19:36.322Z,6.85
2023-11-04T09:24:38.870Z,5.72
2023-11-04T09:29:41.114Z,5.70
2023-11-04T09:34:43.486Z,6.00
2023-11-04T09:39:45.822Z,7.45
2023-11-04T09:44:48.203Z,6.22
2023-11-04T09:49:51.062Z,8.02
2023-11-04T09:54:53.666Z,7.03
2023-11-04T09:59:56.059Z,7.10
2023-11-04T10:04:59.787Z,7.62
2023-11-04T10:10:10.501Z,6.62
2023-11-04T10:15:18.930Z,8.15
2023-11-04T10:20:21.730Z,6.87
2023-11-04T10:25:24.195Z,8.40
2023-11-04T10:30:26.490Z,7.05
2023-11-04T10:35:29.187Z,8.43
2023-11-04T10:40:31.406Z,7.62
2023-11-04T10:45:41.806Z,6.57
2023-11-04T10:50:50.300Z,9.80
2023-11-04T10:56:34.870Z,11.65
2023-11-04T11:01:38.400Z,7.75
2023-11-04T11:06:41.223Z,7.25
2023-11-04T11:11:53.757Z,8.32
2023-11-04T11:17:02.937Z,7.50
2023-11-04T11:22:06.631Z,7.53
2023-11-04T11:27:09.102Z,7.53
2023-11-04T11:32:11.857Z,6.57
2023-11-04T11:37:14.068Z,8.48
2023-11-04T11:42:16.818Z,7.63
2023-11-04T11:47:21.909Z,7.70
2023-11-04T11:52:24.134Z,8.30
2023-11-04T11:57:26.439Z,8.30
2023-11-04T12:02:28.734Z,8.35
2023-11-04T12:07:33.122Z,7.83
2023-11-04T12:12:36.052Z,7.72
2023-11-04T12:17:38.513Z,7.07
2023-11-04T12:22:40.921Z,7.03
2023-11-04T12:27:49.712Z,7.30
2023-11-04T12:32:54.368Z,9.10
2023-11-04T12:37:57.290Z,8.07
2023-11-04T12:43:05.579Z,8.38
2023-11-04T12:48:09.227Z,9.60
2023-11-04T12:53:12.946Z,7.45
2023-11-04T12:58:15.156Z,7.60
2023-11-04T13:03:18.208Z,8.05
2023-11-04T13:08:20.455Z,7.68
2023-11-04T13:13:22.744Z,6.78
2023-11-04T13:18:24.914Z,9.75
2023-11-04T13:23:27.088Z,7.07
2023-11-04T13:28:29.490Z,8.20
2023-11-04T13:33:31.734Z,6.80
2023-11-04T13:38:33.885Z,6.95
2023-11-04T13:43:36.044Z,6.12
2023-11-04T13:48:38.341Z,6.37
2023-11-04T13:53:40.580Z,5.62
2023-11-04T13:58:42.824Z,6.12
2023-11-04T14:03:46.250Z,6.68
2023-11-04T14:08:49.668Z,4.65
2023-11-04T14:13:51.928Z,4.30
2023-11-04T14:18:55.017Z,4.90
2023-11-04T14:24:00.232Z,5.18
2023-11-04T14:29:02.509Z,6.18
2023-11-04T14:34:04.756Z,6.03
2023-11-04T14:39:06.979Z,4.27
2023-11-04T14:44:09.220Z,7.72
2023-11-04T14:49:11.559Z,6.75
2023-11-04T14:54:13.897Z,7.40
2023-11-04T14:59:16.608Z,7.28
2023-11-04T15:04:19.071Z,6.27
2023-11-04T15:09:21.427Z,5.43
2023-11-04T15:14:23.780Z,6.50
2023-11-04T15:19:26.146Z,6.53
2023-11-04T15:24:28.314Z,8.73
2023-11-04T15:29:30.619Z,7.60
2023-11-04T15:34:33.080Z,7.10
2023-11-04T15:39:36.956Z,6.93
2023-11-04T15:44:39.251Z,7.10
2023-11-04T15:49:41.369Z,7.70
2023-11-04T15:54:43.637Z,9.33
2023-11-04T15:59:45.784Z,9.07
2023-11-04T16:04:48.022Z,10.13
2023-11-04T16:09:50.235Z,8.75
2023-11-04T16:14:52.451Z,11.00
2023-11-04T16:19:54.698Z,12.40
2023-11-04T16:24:57.451Z,10.75
2023-11-04T16:30:00.234Z,12.18
2023-11-04T16:35:04.701Z,11.75
2023-11-04T16:40:07.518Z,12.18
2023-11-04T16:45:12.840Z,10.67
2023-11-04T16:50:16.514Z,11.32
2023-11-04T16:55:18.837Z,10.18
2023-11-04T17:00:21.170Z,10.48
2023-11-04T17:05:23.420Z,10.52
2023-11-04T17:10:27.002Z,12.53
2023-11-04T17:15:29.721Z,14.43
2023-11-04T17:20:31.856Z,14.18
2023-11-04T17:25:34.068Z,13.80
2023-11-04T17:30:36.231Z,13.32
2023-11-04T17:35:38.536Z,14.67
2023-11-04T17:40:41.144Z,14.75
2023-11-04T17:45:43.365Z,15.48
2023-11-04T17:50:45.600Z,14.60
2023-11-04T17:55:47.916Z,13.95
2023-11-04T18:00:50.113Z,17.17
2023-11-04T18:05:52.343Z,16.40
2023-11-04T18:10:55.567Z,16.48
2023-11-04T18:15:58.307Z,15.75
2023-11-04T18:21:00.606Z,16.67
2023-11-04T18:26:04.139Z,22.10
2023-11-04T18:31:06.504Z,18.30
2023-11-04T18:36:09.037Z,17.55
2023-11-04T18:41:16.998Z,17.33
2023-11-04T18:46:19.322Z,16.73
2023-11-04T18:51:21.624Z,17.40
2023-11-04T18:56:23.960Z,17.15
2023-11-04T19:01:26.305Z,15.90
2023-11-04T19:06:28.571Z,15.20
2023-11-04T19:11:30.866Z,18.08
2023-11-04T19:16:33.138Z,15.87
2023-11-04T19:21:35.402Z,16.62
2023-11-04T19:26:37.661Z,17.58
2023-11-04T19:31:39.923Z,15.02
2023-11-04T19:36:42.166Z,17.08
2023-11-04T19:41:44.288Z,18.33
2023-11-04T19:46:46.501Z,18.80
2023-11-04T19:51:49.034Z,16.48
2023-11-04T19:56:52.488Z,17.33
2023-11-04T20:01:55.927Z,17.48
2023-11-04T20:06:58.131Z,20.73
2023-11-04T20:12:02.490Z,19.85
2023-11-04T20:17:04.710Z,17.48
2023-11-04T20:22:07.313Z,15.32
2023-11-04T20:27:09.661Z,17.00
2023-11-04T20:32:12.168Z,18.27
2023-11-04T20:37:14.476Z,15.85
2023-11-04T20:42:16.767Z,17.20
2023-11-04T20:47:19.063Z,17.27
2023-11-04T20:52:21.338Z,18.02
2023-11-04T20:57:23.601Z,15.70
2023-11-04T21:02:25.802Z,15.45
2023-11-04T21:07:28.030Z,15.90
2023-11-04T21:12:30.273Z,15.13
2023-11-04T21:17:32.406Z,16.17
2023-11-04T21:22:38.065Z,15.57
2023-11-04T21:27:40.523Z,15.45
2023-11-04T21:32:43.133Z,14.98
2023-11-04T21:37:45.481Z,14.90
2023-11-04T21:42:47.692Z,14.40
2023-11-04T21:47:49.871Z,14.13
2023-11-04T21:52:52.383Z,14.13
2023-11-04T21:57:54.678Z,13.65
2023-11-04T22:02:57.033Z,15.73
2023-11-04T22:07:59.187Z,16.70
2023-11-04T22:13:01.376Z,14.23
2023-11-04T22:18:04.810Z,15.80
2023-11-04T22:23:08.368Z,16.12
2023-11-04T22:28:10.622Z,15.18
2023-11-04T22:33:12.880Z,15.45
2023-11-04T22:38:15.185Z,16.77
2023-11-04T22:43:17.539Z,13.98
2023-11-04T22:48:19.773Z,13.80
2023-11-04T22:53:22.023Z,15.25
2023-11-04T22:58:24.261Z,15.82
2023-11-04T23:03:26.985Z,15.13
2023-11-04T23:08:29.708Z,13.30
2023-11-04T23:13:31.835Z,14.77
2023-11-04T23:18:34.166Z,15.60
2023-11-04T23:23:36.482Z,15.60
2023-11-04T23:28:38.708Z,14.53
2023-11-04T23:33:40.988Z,12.70
2023-11-04T23:38:43.195Z,14.15
2023-11-04T23:43:45.668Z,14.70
2023-11-04T23:48:47.832Z,14.27
2023-11-04T23:53:50.030Z,15.27
2023-11-04T23:58:52.374Z,14.18
